Historyczne dane pomiarowe

Dodano dane terminowe – wersja testowa.

Dane z okresu 1951-2019

Wersja bazy: 1.34 [2019-03-16, lista zmian], aktualizacja planowana na 2019-04-15

Dane meteo z obszaru Polski uzyskane na podstawie danych udostępnionych przez Instytut Meteorologii i Gospodarki Wodnej – Państwowy Instytut Badawczy.

 

Wybierz Datę:    

       

TemperaturaWilgotnośćWiatrCiśnienieOpadyŚniegCzas trwania zjawisk
 Stacja t tx tn tng RH VA  wxwx mslp ppp RRR   cm mm wxwxwxwxwxwxwx
1999-08-14 16.1 22.9 10.3 6.6 57.5- 3.3 1.0---- 0.0------------
1999-08-13 14.6 19.1 9.3 5.4 66.3- 7.3 1.0---- 0.0------------
1999-08-12 16.0 20.5 11.3 9.9 63.5- 5.0 2.7---- 0.0------------
1999-08-11 19.0 24.6 13.2 10.5 70.3- 7.0 1.7---- 0.0------------
1999-08-10 19.5 23.1 13.8 11.3 81.0- 7.7 1.0---- 0.7------------
1999-08-09 21.4 27.7 16.7 14.0 72.5- 6.0 0.7---- 1.5------------
1999-08-08 23.1 30.2 17.1 15.8 73.3- 4.7 0.0---- 0.0------------
1999-08-07 21.9 31.0 12.1 9.9 65.5- 7.0 0.3---- 0.0------------
1999-08-06 21.8 27.7 15.6 13.0 74.0- 7.0 1.7---- 0.0------------
1999-08-05 18.9 28.7 9.1 6.4 80.3- 6.7 0.7---- 0.0------------
1999-08-04 18.7 27.6 8.6 5.8 65.8- 4.7 1.0---- 0.0------------
1999-08-03 18.4 26.3 8.9 6.8 62.8- 6.3 0.3---- 0.0------------
1999-08-02 19.5 27.1 10.4 8.5 50.3- 6.0 1.3---- 0.0------------
1999-08-01 20.0 27.7 10.5 8.5 50.5- 6.3 2.0---- 0.0------------
1999-07-31 19.8 27.7 11.0 8.7 56.3- 6.3 2.0---- 0.0------------
1999-07-30 19.2 26.2 10.1 7.4 56.3- 5.3 1.7---- 0.0------------
1999-07-29 18.7 25.4 11.1 9.4 60.8- 5.0 1.3---- 0.0------------
1999-07-28 18.7 25.7 10.1 9.1 58.3- 2.3 1.7---- 0.0------------
1999-07-27 18.2 24.2 11.4 10.8 62.8- 7.0 1.7---- 0.0------------
1999-07-26 20.8 29.0 10.9 10.7 65.3- 4.0 0.7---- 0.0------------
1999-07-25 18.9 26.6 8.3 7.4 64.8- 3.3 1.0---- 0.0------------
1999-07-24 17.0 20.5 13.6 13.6 71.8- 6.0 1.7---- 0.0------------
1999-07-23 17.2 22.4 12.7 10.9 70.0- 7.3 0.7---- 0.0------------
1999-07-22 18.2 22.2 15.1 14.1 65.5- 7.3 1.0---- 0.0------------
1999-07-21 22.2 28.9 15.4 14.5 66.8- 6.0 1.7---- 2.0------------
1999-07-20 21.9 30.7 13.0 10.5 60.8- 3.0 1.3---- 0.6------------
1999-07-19 21.4 29.6 11.4 9.9 57.8- 7.0 1.0---- 0.0------------
1999-07-18 20.2 27.6 10.6 8.9 61.0- 3.3 0.3---- 0.0------------
1999-07-17 18.6 25.3 10.7 9.3 62.8- 2.7 1.0---- 0.0------------
1999-07-16 17.2 26.2 10.2 8.5 75.0- 5.3 1.0---- 0.0------------
1999-07-15 16.9 20.5 12.9 12.2 67.3- 6.7 1.7---- 0.0------------
1999-07-14 20.0 26.7 15.4 14.6 85.0- 8.0 2.3---- 9.7------------
1999-07-13 21.1 27.1 15.6 13.8 72.3- 7.3 2.3---- 0.7------------
1999-07-12 21.6 29.1 14.8 13.0 70.0- 6.0 1.7---- 0.1------------
1999-07-11 20.3 25.2 15.2 13.1 73.3- 7.3 2.0---- 0.0------------
1999-07-10 22.0 26.8 15.7 14.7 61.5- 4.7 1.7---- 0.0------------
1999-07-09 18.9 22.2 15.0 15.0 84.0- 8.0 2.0---- 0.2------------
1999-07-08 15.5 17.2 13.6 10.4 97.0- 8.0 2.7---- 11.8------------
1999-07-07 18.5 22.4 16.1 14.8 92.3- 8.0 2.0---- 8.5------------
1999-07-06 24.4 32.0 18.7 15.0 69.0- 4.3 2.7---- 23.5------------
1999-07-05 25.1 31.3 16.9 13.2 57.3- 5.0 4.3---- 0.0------------
1999-07-04 23.5 32.4 12.1 10.5 61.3- 3.7 1.0---- 0.0------------
1999-07-03 20.2 26.6 11.8 10.9 65.0- 1.7 1.3---- 0.0------------
1999-07-02 18.6 24.9 13.1 12.2 80.5- 5.7 0.3---- 0.0------------
1999-07-01 19.0 24.9 12.8 11.0 78.5- 7.0 1.7---- 0.0------------
1999-06-30 20.4 25.9 12.0 10.1 60.0- 5.7 0.7---- 0.0------------
1999-06-29 18.9 23.8 12.8 12.6 66.0- 5.0 1.7---- 0.0------------
1999-06-28 21.1 27.7 15.4 14.9 75.5- 7.0 1.7---- 0.8------------
1999-06-27 20.8 25.6 14.1 10.9 75.0- 7.0 2.0---- 8.0------------
1999-06-26 15.5 22.2 6.6 7.2 75.8- 6.7 1.7---- 0.0------------
1999-06-25 12.3 18.5 6.3 4.3 79.3- 7.0 1.7---- 0.4------------
1999-06-24 12.5 18.1 3.8 1.7 68.3- 6.7 1.7---- 0.0------------
1999-06-23 12.4 16.4 8.5 8.5 81.3- 7.3 2.3---- 0.0------------
1999-06-22 10.5 13.3 8.9 8.9 90.8- 8.0 3.0---- 11.5------------
1999-06-21 16.7 21.1 13.1 12.5 75.8- 7.7 2.3---- 5.3------------
1999-06-20 17.2 21.7 12.2 10.0 82.8- 7.3 0.7---- 0.0------------
1999-06-19 15.5 18.5 11.7 11.3 90.8- 7.7 1.7---- 0.0------------
1999-06-18 16.7 19.1 14.5 13.2 91.8- 8.0 0.7---- 13.9------------
1999-06-17 18.9 23.0 15.6 14.9 84.5- 7.7 0.7---- 0.0------------
1999-06-16 17.5 20.0 14.5 14.0 84.0- 7.3 1.0---- 0.0------------
325.8 ms

 

Źródłem pochodzenia danych jest Instytut Meteorologii i Gospodarki Wodnej – Państwowy Instytut Badawczy. Dane Instytutu Meteorologii i Gospodarki Wodnej – Państwowego Instytutu Badawczego zostały przetworzone.

Dane źródłowe można odnaleźć na stronie https://dane.imgw.pl